sensor_id;sensor_type;location;lat;lon;timestamp;P1;durP1;ratioP1;P2;durP2;ratioP2
2522;SDS011;1272;53.332;9.860;2023-10-31T00:01:48;1.90;;;1.80;;
2522;SDS011;1272;53.332;9.860;2023-10-31T00:04:14;4.10;;;1.93;;
2522;SDS011;1272;53.332;9.860;2023-10-31T00:06:40;2.23;;;1.80;;
2522;SDS011;1272;53.332;9.860;2023-10-31T00:09:06;2.17;;;1.97;;
2522;SDS011;1272;53.332;9.860;2023-10-31T00:11:32;1.83;;;1.73;;
2522;SDS011;1272;53.332;9.860;2023-10-31T00:13:57;1.70;;;1.60;;
2522;SDS011;1272;53.332;9.860;2023-10-31T00:16:23;2.10;;;2.00;;
2522;SDS011;1272;53.332;9.860;2023-10-31T00:18:49;2.30;;;2.20;;
2522;SDS011;1272;53.332;9.860;2023-10-31T00:21:15;1.60;;;1.50;;
2522;SDS011;1272;53.332;9.860;2023-10-31T00:23:44;1.90;;;1.80;;
2522;SDS011;1272;53.332;9.860;2023-10-31T00:26:10;2.10;;;2.00;;
2522;SDS011;1272;53.332;9.860;2023-10-31T00:28:36;2.13;;;2.00;;
2522;SDS011;1272;53.332;9.860;2023-10-31T00:31:02;2.37;;;2.27;;
2522;SDS011;1272;53.332;9.860;2023-10-31T00:33:29;2.60;;;2.40;;
2522;SDS011;1272;53.332;9.860;2023-10-31T00:35:55;2.30;;;2.10;;
2522;SDS011;1272;53.332;9.860;2023-10-31T00:38:21;2.00;;;1.90;;
2522;SDS011;1272;53.332;9.860;2023-10-31T00:40:46;1.97;;;1.87;;
2522;SDS011;1272;53.332;9.860;2023-10-31T00:43:12;2.70;;;2.10;;
2522;SDS011;1272;53.332;9.860;2023-10-31T00:45:38;1.80;;;1.70;;
2522;SDS011;1272;53.332;9.860;2023-10-31T00:48:03;1.97;;;1.87;;
2522;SDS011;1272;53.332;9.860;2023-10-31T00:50:29;2.87;;;2.57;;
2522;SDS011;1272;53.332;9.860;2023-10-31T00:52:55;1.90;;;1.80;;
2522;SDS011;1272;53.332;9.860;2023-10-31T00:55:21;1.93;;;1.83;;
2522;SDS011;1272;53.332;9.860;2023-10-31T00:57:46;2.13;;;2.03;;
2522;SDS011;1272;53.332;9.860;2023-10-31T01:00:12;1.90;;;1.80;;
2522;SDS011;1272;53.332;9.860;2023-10-31T01:02:38;1.63;;;1.53;;
2522;SDS011;1272;53.332;9.860;2023-10-31T01:05:04;1.63;;;1.63;;
2522;SDS011;1272;53.332;9.860;2023-10-31T01:07:30;1.60;;;1.50;;
2522;SDS011;1272;53.332;9.860;2023-10-31T01:09:55;2.10;;;1.97;;
2522;SDS011;1272;53.332;9.860;2023-10-31T01:12:21;2.00;;;1.90;;
2522;SDS011;1272;53.332;9.860;2023-10-31T01:14:47;2.23;;;2.13;;
2522;SDS011;1272;53.332;9.860;2023-10-31T01:17:13;1.67;;;1.53;;
2522;SDS011;1272;53.332;9.860;2023-10-31T01:19:38;2.67;;;1.73;;
2522;SDS011;1272;53.332;9.860;2023-10-31T01:22:04;1.67;;;1.57;;
2522;SDS011;1272;53.332;9.860;2023-10-31T01:24:29;2.70;;;2.23;;
2522;SDS011;1272;53.332;9.860;2023-10-31T01:26:55;2.03;;;1.70;;
2522;SDS011;1272;53.332;9.860;2023-10-31T01:29:21;1.97;;;1.80;;
2522;SDS011;1272;53.332;9.860;2023-10-31T01:31:46;1.77;;;1.70;;
2522;SDS011;1272;53.332;9.860;2023-10-31T01:34:12;1.73;;;1.63;;
2522;SDS011;1272;53.332;9.860;2023-10-31T01:36:38;2.27;;;2.10;;
2522;SDS011;1272;53.332;9.860;2023-10-31T01:39:03;1.63;;;1.53;;
2522;SDS011;1272;53.332;9.860;2023-10-31T01:41:29;1.33;;;1.33;;
2522;SDS011;1272;53.332;9.860;2023-10-31T01:43:55;1.60;;;1.50;;
2522;SDS011;1272;53.332;9.860;2023-10-31T01:46:20;2.20;;;2.00;;
2522;SDS011;1272;53.332;9.860;2023-10-31T01:48:46;2.47;;;2.30;;
2522;SDS011;1272;53.332;9.860;2023-10-31T01:51:12;2.00;;;1.90;;
2522;SDS011;1272;53.332;9.860;2023-10-31T01:53:38;1.73;;;1.63;;
2522;SDS011;1272;53.332;9.860;2023-10-31T01:56:05;2.10;;;2.00;;
2522;SDS011;1272;53.332;9.860;2023-10-31T01:58:32;3.50;;;2.23;;
2522;SDS011;1272;53.332;9.860;2023-10-31T02:01:00;2.00;;;1.90;;
2522;SDS011;1272;53.332;9.860;2023-10-31T02:03:29;2.23;;;1.83;;
2522;SDS011;1272;53.332;9.860;2023-10-31T02:05:56;2.03;;;1.93;;
2522;SDS011;1272;53.332;9.860;2023-10-31T02:08:22;2.63;;;2.43;;
2522;SDS011;1272;53.332;9.860;2023-10-31T02:10:49;2.90;;;2.07;;
2522;SDS011;1272;53.332;9.860;2023-10-31T02:13:15;2.10;;;2.00;;
2522;SDS011;1272;53.332;9.860;2023-10-31T02:15:43;1.67;;;1.57;;
2522;SDS011;1272;53.332;9.860;2023-10-31T02:18:09;2.47;;;2.30;;
2522;SDS011;1272;53.332;9.860;2023-10-31T02:20:35;2.20;;;2.10;;
2522;SDS011;1272;53.332;9.860;2023-10-31T02:23:01;2.93;;;1.93;;
2522;SDS011;1272;53.332;9.860;2023-10-31T02:25:28;2.40;;;2.30;;
2522;SDS011;1272;53.332;9.860;2023-10-31T02:27:54;2.37;;;2.27;;
2522;SDS011;1272;53.332;9.860;2023-10-31T02:30:19;2.03;;;1.93;;
2522;SDS011;1272;53.332;9.860;2023-10-31T02:32:46;2.27;;;2.17;;
2522;SDS011;1272;53.332;9.860;2023-10-31T02:35:12;2.50;;;2.40;;
2522;SDS011;1272;53.332;9.860;2023-10-31T02:37:38;2.70;;;2.50;;
2522;SDS011;1272;53.332;9.860;2023-10-31T02:40:05;4.87;;;2.80;;
2522;SDS011;1272;53.332;9.860;2023-10-31T02:42:31;3.43;;;3.07;;
2522;SDS011;1272;53.332;9.860;2023-10-31T02:44:57;3.40;;;3.10;;
2522;SDS011;1272;53.332;9.860;2023-10-31T02:47:22;4.20;;;2.87;;
2522;SDS011;1272;53.332;9.860;2023-10-31T02:49:48;2.73;;;2.53;;
2522;SDS011;1272;53.332;9.860;2023-10-31T02:52:14;2.53;;;2.33;;
2522;SDS011;1272;53.332;9.860;2023-10-31T02:54:39;3.00;;;2.80;;
2522;SDS011;1272;53.332;9.860;2023-10-31T02:57:05;2.53;;;2.33;;
2522;SDS011;1272;53.332;9.860;2023-10-31T02:59:31;3.83;;;2.60;;
2522;SDS011;1272;53.332;9.860;2023-10-31T03:01:57;4.50;;;2.30;;
2522;SDS011;1272;53.332;9.860;2023-10-31T03:04:23;3.47;;;3.17;;
2522;SDS011;1272;53.332;9.860;2023-10-31T03:06:48;3.23;;;2.90;;
2522;SDS011;1272;53.332;9.860;2023-10-31T03:09:14;3.20;;;3.00;;
2522;SDS011;1272;53.332;9.860;2023-10-31T03:11:40;3.50;;;3.10;;
2522;SDS011;1272;53.332;9.860;2023-10-31T03:14:06;3.40;;;3.17;;
2522;SDS011;1272;53.332;9.860;2023-10-31T03:16:32;2.97;;;2.77;;
2522;SDS011;1272;53.332;9.860;2023-10-31T03:18:57;3.90;;;3.60;;
2522;SDS011;1272;53.332;9.860;2023-10-31T03:21:24;5.30;;;4.80;;
2522;SDS011;1272;53.332;9.860;2023-10-31T03:23:50;9.17;;;4.50;;
2522;SDS011;1272;53.332;9.860;2023-10-31T03:26:18;3.93;;;3.63;;
2522;SDS011;1272;53.332;9.860;2023-10-31T03:28:44;4.40;;;4.00;;
2522;SDS011;1272;53.332;9.860;2023-10-31T03:31:11;4.00;;;3.70;;
2522;SDS011;1272;53.332;9.860;2023-10-31T03:33:38;5.27;;;4.83;;
2522;SDS011;1272;53.332;9.860;2023-10-31T03:36:04;4.93;;;4.53;;
2522;SDS011;1272;53.332;9.860;2023-10-31T03:38:30;4.17;;;3.87;;
2522;SDS011;1272;53.332;9.860;2023-10-31T03:40:56;4.20;;;3.67;;
2522;SDS011;1272;53.332;9.860;2023-10-31T03:43:22;4.17;;;3.83;;
2522;SDS011;1272;53.332;9.860;2023-10-31T03:45:48;4.33;;;3.93;;
2522;SDS011;1272;53.332;9.860;2023-10-31T03:48:15;6.80;;;5.80;;
2522;SDS011;1272;53.332;9.860;2023-10-31T03:50:41;4.63;;;4.20;;
2522;SDS011;1272;53.332;9.860;2023-10-31T03:53:07;5.27;;;4.90;;
2522;SDS011;1272;53.332;9.860;2023-10-31T03:55:33;10.33;;;4.63;;
2522;SDS011;1272;53.332;9.860;2023-10-31T03:57:59;4.47;;;4.07;;
2522;SDS011;1272;53.332;9.860;2023-10-31T04:00:24;4.50;;;4.10;;
2522;SDS011;1272;53.332;9.860;2023-10-31T04:02:50;3.40;;;3.20;;
2522;SDS011;1272;53.332;9.860;2023-10-31T04:05:16;3.90;;;3.60;;
2522;SDS011;1272;53.332;9.860;2023-10-31T04:07:41;4.47;;;4.03;;
2522;SDS011;1272;53.332;9.860;2023-10-31T04:10:08;4.53;;;4.17;;
2522;SDS011;1272;53.332;9.860;2023-10-31T04:12:34;4.63;;;4.30;;
2522;SDS011;1272;53.332;9.860;2023-10-31T04:15:00;6.60;;;5.27;;
2522;SDS011;1272;53.332;9.860;2023-10-31T04:17:26;4.40;;;4.10;;
2522;SDS011;1272;53.332;9.860;2023-10-31T04:19:51;5.17;;;4.77;;
2522;SDS011;1272;53.332;9.860;2023-10-31T04:22:17;4.23;;;3.97;;
2522;SDS011;1272;53.332;9.860;2023-10-31T04:24:43;4.40;;;4.10;;
2522;SDS011;1272;53.332;9.860;2023-10-31T04:27:08;5.30;;;4.80;;
2522;SDS011;1272;53.332;9.860;2023-10-31T04:29:34;6.10;;;5.17;;
2522;SDS011;1272;53.332;9.860;2023-10-31T04:32:00;6.07;;;4.87;;
2522;SDS011;1272;53.332;9.860;2023-10-31T04:34:25;5.33;;;4.97;;
2522;SDS011;1272;53.332;9.860;2023-10-31T04:36:52;6.70;;;6.00;;
2522;SDS011;1272;53.332;9.860;2023-10-31T04:39:17;7.50;;;6.50;;
2522;SDS011;1272;53.332;9.860;2023-10-31T04:41:43;6.27;;;5.63;;
2522;SDS011;1272;53.332;9.860;2023-10-31T04:44:09;6.30;;;5.23;;
2522;SDS011;1272;53.332;9.860;2023-10-31T04:46:34;7.83;;;5.93;;
2522;SDS011;1272;53.332;9.860;2023-10-31T04:49:00;5.97;;;5.37;;
2522;SDS011;1272;53.332;9.860;2023-10-31T04:51:26;7.87;;;6.70;;
2522;SDS011;1272;53.332;9.860;2023-10-31T04:53:51;5.87;;;5.37;;
2522;SDS011;1272;53.332;9.860;2023-10-31T04:56:17;6.73;;;6.10;;
2522;SDS011;1272;53.332;9.860;2023-10-31T04:58:43;6.60;;;5.80;;
2522;SDS011;1272;53.332;9.860;2023-10-31T05:01:12;6.87;;;6.17;;
2522;SDS011;1272;53.332;9.860;2023-10-31T05:03:38;10.80;;;6.93;;
2522;SDS011;1272;53.332;9.860;2023-10-31T05:06:04;6.17;;;5.57;;
2522;SDS011;1272;53.332;9.860;2023-10-31T05:08:31;6.37;;;5.77;;
2522;SDS011;1272;53.332;9.860;2023-10-31T05:10:58;5.33;;;4.83;;
2522;SDS011;1272;53.332;9.860;2023-10-31T05:13:24;6.40;;;5.80;;
2522;SDS011;1272;53.332;9.860;2023-10-31T05:15:50;6.40;;;5.77;;
2522;SDS011;1272;53.332;9.860;2023-10-31T05:18:16;7.30;;;5.43;;
2522;SDS011;1272;53.332;9.860;2023-10-31T05:20:42;5.77;;;4.80;;
2522;SDS011;1272;53.332;9.860;2023-10-31T05:23:08;4.37;;;4.00;;
2522;SDS011;1272;53.332;9.860;2023-10-31T05:25:34;5.17;;;4.73;;
2522;SDS011;1272;53.332;9.860;2023-10-31T05:27:59;5.60;;;5.10;;
2522;SDS011;1272;53.332;9.860;2023-10-31T05:30:25;5.47;;;4.97;;
2522;SDS011;1272;53.332;9.860;2023-10-31T05:32:52;4.97;;;4.33;;
2522;SDS011;1272;53.332;9.860;2023-10-31T05:35:18;4.50;;;4.20;;
2522;SDS011;1272;53.332;9.860;2023-10-31T05:37:45;5.30;;;4.83;;
2522;SDS011;1272;53.332;9.860;2023-10-31T05:40:11;6.40;;;5.80;;
2522;SDS011;1272;53.332;9.860;2023-10-31T05:42:37;6.90;;;6.23;;
2522;SDS011;1272;53.332;9.860;2023-10-31T05:45:03;6.27;;;4.90;;
2522;SDS011;1272;53.332;9.860;2023-10-31T05:47:29;5.33;;;4.93;;
2522;SDS011;1272;53.332;9.860;2023-10-31T05:49:55;5.80;;;5.30;;
2522;SDS011;1272;53.332;9.860;2023-10-31T05:52:21;6.10;;;5.20;;
2522;SDS011;1272;53.332;9.860;2023-10-31T05:54:46;4.70;;;3.87;;
2522;SDS011;1272;53.332;9.860;2023-10-31T05:57:12;4.00;;;3.57;;
2522;SDS011;1272;53.332;9.860;2023-10-31T05:59:38;3.13;;;2.93;;
2522;SDS011;1272;53.332;9.860;2023-10-31T06:02:03;2.23;;;2.13;;
2522;SDS011;1272;53.332;9.860;2023-10-31T06:04:29;1.70;;;1.60;;
2522;SDS011;1272;53.332;9.860;2023-10-31T06:06:55;1.87;;;1.77;;
2522;SDS011;1272;53.332;9.860;2023-10-31T06:09:21;2.30;;;2.20;;
2522;SDS011;1272;53.332;9.860;2023-10-31T06:11:46;1.50;;;1.40;;
2522;SDS011;1272;53.332;9.860;2023-10-31T06:14:12;1.10;;;1.10;;
2522;SDS011;1272;53.332;9.860;2023-10-31T06:16:41;1.40;;;1.37;;
2522;SDS011;1272;53.332;9.860;2023-10-31T06:19:10;1.33;;;1.30;;
2522;SDS011;1272;53.332;9.860;2023-10-31T06:21:36;1.20;;;1.10;;
2522;SDS011;1272;53.332;9.860;2023-10-31T06:24:03;1.30;;;1.30;;
2522;SDS011;1272;53.332;9.860;2023-10-31T06:26:29;1.47;;;1.47;;
2522;SDS011;1272;53.332;9.860;2023-10-31T06:28:54;1.47;;;1.30;;
2522;SDS011;1272;53.332;9.860;2023-10-31T06:31:20;2.20;;;1.73;;
2522;SDS011;1272;53.332;9.860;2023-10-31T06:33:46;1.53;;;1.43;;
2522;SDS011;1272;53.332;9.860;2023-10-31T06:36:11;1.47;;;1.37;;
2522;SDS011;1272;53.332;9.860;2023-10-31T06:38:37;1.77;;;1.67;;
2522;SDS011;1272;53.332;9.860;2023-10-31T06:41:03;1.67;;;1.57;;
2522;SDS011;1272;53.332;9.860;2023-10-31T06:43:29;1.30;;;1.30;;
2522;SDS011;1272;53.332;9.860;2023-10-31T06:45:55;2.13;;;2.03;;
2522;SDS011;1272;53.332;9.860;2023-10-31T06:48:22;3.40;;;3.10;;
2522;SDS011;1272;53.332;9.860;2023-10-31T06:50:47;3.27;;;2.97;;
2522;SDS011;1272;53.332;9.860;2023-10-31T06:53:13;4.10;;;3.80;;
2522;SDS011;1272;53.332;9.860;2023-10-31T06:55:39;4.93;;;4.07;;
2522;SDS011;1272;53.332;9.860;2023-10-31T06:58:04;6.03;;;4.70;;
2522;SDS011;1272;53.332;9.860;2023-10-31T07:00:30;5.80;;;4.77;;
2522;SDS011;1272;53.332;9.860;2023-10-31T07:02:56;5.47;;;4.30;;
2522;SDS011;1272;53.332;9.860;2023-10-31T07:05:23;5.70;;;5.03;;
2522;SDS011;1272;53.332;9.860;2023-10-31T07:07:49;6.57;;;5.87;;
2522;SDS011;1272;53.332;9.860;2023-10-31T07:10:15;6.97;;;5.57;;
2522;SDS011;1272;53.332;9.860;2023-10-31T07:12:41;7.77;;;5.73;;
2522;SDS011;1272;53.332;9.860;2023-10-31T07:15:07;5.97;;;5.00;;
2522;SDS011;1272;53.332;9.860;2023-10-31T07:17:33;3.83;;;3.53;;
2522;SDS011;1272;53.332;9.860;2023-10-31T07:19:58;3.40;;;3.10;;
2522;SDS011;1272;53.332;9.860;2023-10-31T07:22:24;3.40;;;3.13;;
2522;SDS011;1272;53.332;9.860;2023-10-31T07:24:50;2.67;;;2.20;;
2522;SDS011;1272;53.332;9.860;2023-10-31T07:27:17;1.87;;;1.77;;
2522;SDS011;1272;53.332;9.860;2023-10-31T07:29:42;1.90;;;1.80;;
2522;SDS011;1272;53.332;9.860;2023-10-31T07:32:09;2.03;;;1.87;;
2522;SDS011;1272;53.332;9.860;2023-10-31T07:34:35;1.40;;;1.30;;
2522;SDS011;1272;53.332;9.860;2023-10-31T07:37:00;1.10;;;1.10;;
2522;SDS011;1272;53.332;9.860;2023-10-31T07:39:26;0.90;;;0.90;;
2522;SDS011;1272;53.332;9.860;2023-10-31T07:41:52;0.80;;;0.80;;
2522;SDS011;1272;53.332;9.860;2023-10-31T07:44:18;1.23;;;0.90;;
2522;SDS011;1272;53.332;9.860;2023-10-31T07:46:43;0.67;;;0.63;;
2522;SDS011;1272;53.332;9.860;2023-10-31T07:49:09;1.37;;;0.73;;
2522;SDS011;1272;53.332;9.860;2023-10-31T07:51:35;0.60;;;0.60;;
2522;SDS011;1272;53.332;9.860;2023-10-31T07:54:01;0.60;;;0.60;;
2522;SDS011;1272;53.332;9.860;2023-10-31T07:56:26;0.60;;;0.60;;
2522;SDS011;1272;53.332;9.860;2023-10-31T07:58:56;1.43;;;0.90;;
2522;SDS011;1272;53.332;9.860;2023-10-31T08:01:24;0.73;;;0.73;;
2522;SDS011;1272;53.332;9.860;2023-10-31T08:03:50;0.70;;;0.70;;
2522;SDS011;1272;53.332;9.860;2023-10-31T08:06:16;0.60;;;0.60;;
2522;SDS011;1272;53.332;9.860;2023-10-31T08:08:41;0.73;;;0.73;;
2522;SDS011;1272;53.332;9.860;2023-10-31T08:11:10;0.70;;;0.70;;
2522;SDS011;1272;53.332;9.860;2023-10-31T08:13:36;0.67;;;0.67;;
2522;SDS011;1272;53.332;9.860;2023-10-31T08:19:23;0.90;;;0.70;;
2522;SDS011;1272;53.332;9.860;2023-10-31T08:21:52;0.63;;;0.63;;
2522;SDS011;1272;53.332;9.860;2023-10-31T08:24:17;0.60;;;0.60;;
2522;SDS011;1272;53.332;9.860;2023-10-31T08:26:43;0.70;;;0.70;;
2522;SDS011;1272;53.332;9.860;2023-10-31T08:29:09;0.70;;;0.70;;
2522;SDS011;1272;53.332;9.860;2023-10-31T08:31:35;1.30;;;1.20;;
2522;SDS011;1272;53.332;9.860;2023-10-31T08:34:00;0.63;;;0.63;;
2522;SDS011;1272;53.332;9.860;2023-10-31T08:36:26;0.80;;;0.80;;
2522;SDS011;1272;53.332;9.860;2023-10-31T08:38:52;0.80;;;0.80;;
2522;SDS011;1272;53.332;9.860;2023-10-31T08:41:17;0.50;;;0.50;;
2522;SDS011;1272;53.332;9.860;2023-10-31T08:43:45;0.90;;;0.90;;
2522;SDS011;1272;53.332;9.860;2023-10-31T08:46:11;0.60;;;0.60;;
2522;SDS011;1272;53.332;9.860;2023-10-31T08:48:38;0.80;;;0.60;;
2522;SDS011;1272;53.332;9.860;2023-10-31T08:51:04;1.23;;;0.70;;
2522;SDS011;1272;53.332;9.860;2023-10-31T08:53:29;0.80;;;0.80;;
2522;SDS011;1272;53.332;9.860;2023-10-31T08:55:55;0.60;;;0.60;;
2522;SDS011;1272;53.332;9.860;2023-10-31T08:58:21;0.73;;;0.73;;
2522;SDS011;1272;53.332;9.860;2023-10-31T09:00:47;0.60;;;0.60;;
2522;SDS011;1272;53.332;9.860;2023-10-31T09:13:19;0.70;;;0.70;;
2522;SDS011;1272;53.332;9.860;2023-10-31T09:15:45;1.00;;;0.80;;
2522;SDS011;1272;53.332;9.860;2023-10-31T09:18:11;0.57;;;0.57;;
2522;SDS011;1272;53.332;9.860;2023-10-31T09:20:36;1.33;;;0.57;;
2522;SDS011;1272;53.332;9.860;2023-10-31T09:23:02;1.00;;;1.00;;
2522;SDS011;1272;53.332;9.860;2023-10-31T09:25:28;0.60;;;0.60;;
2522;SDS011;1272;53.332;9.860;2023-10-31T09:27:55;0.60;;;0.60;;
2522;SDS011;1272;53.332;9.860;2023-10-31T09:30:20;0.60;;;0.60;;
2522;SDS011;1272;53.332;9.860;2023-10-31T09:32:46;1.43;;;0.70;;
2522;SDS011;1272;53.332;9.860;2023-10-31T09:35:12;4.10;;;0.93;;
2522;SDS011;1272;53.332;9.860;2023-10-31T09:37:38;1.37;;;0.70;;
2522;SDS011;1272;53.332;9.860;2023-10-31T09:40:04;0.50;;;0.50;;
2522;SDS011;1272;53.332;9.860;2023-10-31T09:42:31;1.60;;;0.80;;
2522;SDS011;1272;53.332;9.860;2023-10-31T09:44:56;0.70;;;0.60;;
2522;SDS011;1272;53.332;9.860;2023-10-31T09:47:22;0.67;;;0.67;;
2522;SDS011;1272;53.332;9.860;2023-10-31T09:49:48;0.60;;;0.60;;
2522;SDS011;1272;53.332;9.860;2023-10-31T09:52:14;0.50;;;0.50;;
2522;SDS011;1272;53.332;9.860;2023-10-31T09:54:40;1.10;;;0.63;;
2522;SDS011;1272;53.332;9.860;2023-10-31T09:57:07;0.90;;;0.70;;
2522;SDS011;1272;53.332;9.860;2023-10-31T09:59:34;2.40;;;0.70;;
2522;SDS011;1272;53.332;9.860;2023-10-31T10:02:00;0.60;;;0.60;;
2522;SDS011;1272;53.332;9.860;2023-10-31T10:04:26;1.17;;;0.60;;
2522;SDS011;1272;53.332;9.860;2023-10-31T10:06:58;1.07;;;0.90;;
2522;SDS011;1272;53.332;9.860;2023-10-31T10:09:24;1.00;;;0.70;;
2522;SDS011;1272;53.332;9.860;2023-10-31T10:11:50;0.60;;;0.60;;
2522;SDS011;1272;53.332;9.860;2023-10-31T10:14:17;0.80;;;0.80;;
2522;SDS011;1272;53.332;9.860;2023-10-31T10:16:43;0.70;;;0.70;;
2522;SDS011;1272;53.332;9.860;2023-10-31T10:19:15;0.87;;;0.87;;
2522;SDS011;1272;53.332;9.860;2023-10-31T10:21:48;0.80;;;0.80;;
2522;SDS011;1272;53.332;9.860;2023-10-31T10:24:15;0.73;;;0.70;;
2522;SDS011;1272;53.332;9.860;2023-10-31T10:26:41;0.67;;;0.67;;
2522;SDS011;1272;53.332;9.860;2023-10-31T10:29:07;1.33;;;1.00;;
2522;SDS011;1272;53.332;9.860;2023-10-31T10:31:33;1.70;;;1.60;;
2522;SDS011;1272;53.332;9.860;2023-10-31T10:33:58;0.67;;;0.60;;
2522;SDS011;1272;53.332;9.860;2023-10-31T10:36:26;0.60;;;0.50;;
2522;SDS011;1272;53.332;9.860;2023-10-31T10:38:56;1.20;;;1.10;;
2522;SDS011;1272;53.332;9.860;2023-10-31T10:41:24;2.50;;;2.40;;
2522;SDS011;1272;53.332;9.860;2023-10-31T10:44:06;0.93;;;0.70;;
2522;SDS011;1272;53.332;9.860;2023-10-31T10:46:33;2.60;;;0.73;;
2522;SDS011;1272;53.332;9.860;2023-10-31T10:49:03;2.10;;;0.93;;
2522;SDS011;1272;53.332;9.860;2023-10-31T10:51:52;0.60;;;0.60;;
2522;SDS011;1272;53.332;9.860;2023-10-31T10:57:09;1.10;;;1.00;;
2522;SDS011;1272;53.332;9.860;2023-10-31T10:59:48;0.70;;;0.70;;
2522;SDS011;1272;53.332;9.860;2023-10-31T11:02:17;1.90;;;0.97;;
2522;SDS011;1272;53.332;9.860;2023-10-31T11:04:44;2.37;;;1.37;;
2522;SDS011;1272;53.332;9.860;2023-10-31T11:07:10;3.93;;;0.67;;
2522;SDS011;1272;53.332;9.860;2023-10-31T11:09:37;4.00;;;0.80;;
2522;SDS011;1272;53.332;9.860;2023-10-31T11:12:03;0.80;;;0.80;;
2522;SDS011;1272;53.332;9.860;2023-10-31T11:14:30;0.70;;;0.70;;
2522;SDS011;1272;53.332;9.860;2023-10-31T11:16:58;0.80;;;0.80;;
2522;SDS011;1272;53.332;9.860;2023-10-31T11:19:29;0.70;;;0.70;;
2522;SDS011;1272;53.332;9.860;2023-10-31T11:21:57;0.60;;;0.60;;
2522;SDS011;1272;53.332;9.860;2023-10-31T11:24:28;2.20;;;0.90;;
2522;SDS011;1272;53.332;9.860;2023-10-31T11:42:42;1.10;;;1.10;;
2522;SDS011;1272;53.332;9.860;2023-10-31T11:45:25;2.27;;;1.00;;
2522;SDS011;1272;53.332;9.860;2023-10-31T11:47:51;0.70;;;0.70;;
2522;SDS011;1272;53.332;9.860;2023-10-31T11:50:17;0.70;;;0.70;;
2522;SDS011;1272;53.332;9.860;2023-10-31T11:52:43;0.70;;;0.70;;
2522;SDS011;1272;53.332;9.860;2023-10-31T11:55:12;0.87;;;0.87;;
2522;SDS011;1272;53.332;9.860;2023-10-31T11:57:38;2.27;;;1.07;;
2522;SDS011;1272;53.332;9.860;2023-10-31T12:00:05;0.97;;;0.97;;
2522;SDS011;1272;53.332;9.860;2023-10-31T12:02:32;0.80;;;0.80;;
2522;SDS011;1272;53.332;9.860;2023-10-31T12:05:10;1.40;;;1.30;;
2522;SDS011;1272;53.332;9.860;2023-10-31T12:07:46;1.80;;;1.63;;
2522;SDS011;1272;53.332;9.860;2023-10-31T12:10:12;0.60;;;0.60;;
2522;SDS011;1272;53.332;9.860;2023-10-31T12:12:47;0.70;;;0.70;;
2522;SDS011;1272;53.332;9.860;2023-10-31T12:15:12;0.97;;;0.97;;
2522;SDS011;1272;53.332;9.860;2023-10-31T12:17:39;1.40;;;1.40;;
2522;SDS011;1272;53.332;9.860;2023-10-31T12:30:15;0.97;;;0.70;;
2522;SDS011;1272;53.332;9.860;2023-10-31T12:32:42;0.70;;;0.70;;
2522;SDS011;1272;53.332;9.860;2023-10-31T12:35:13;0.67;;;0.67;;
2522;SDS011;1272;53.332;9.860;2023-10-31T12:37:48;0.93;;;0.93;;
2522;SDS011;1272;53.332;9.860;2023-10-31T12:40:16;2.70;;;0.80;;
2522;SDS011;1272;53.332;9.860;2023-10-31T12:42:44;2.03;;;1.83;;
2522;SDS011;1272;53.332;9.860;2023-10-31T12:45:14;1.50;;;1.40;;
2522;SDS011;1272;53.332;9.860;2023-10-31T12:47:42;2.00;;;1.90;;
2522;SDS011;1272;53.332;9.860;2023-10-31T12:50:09;2.93;;;1.70;;
2522;SDS011;1272;53.332;9.860;2023-10-31T12:52:48;1.20;;;1.20;;
2522;SDS011;1272;53.332;9.860;2023-10-31T12:55:15;0.60;;;0.60;;
2522;SDS011;1272;53.332;9.860;2023-10-31T12:57:42;0.90;;;0.90;;
2522;SDS011;1272;53.332;9.860;2023-10-31T13:00:09;0.80;;;0.80;;
2522;SDS011;1272;53.332;9.860;2023-10-31T13:02:41;0.80;;;0.80;;
2522;SDS011;1272;53.332;9.860;2023-10-31T13:05:08;3.30;;;3.00;;
2522;SDS011;1272;53.332;9.860;2023-10-31T13:07:37;2.97;;;2.53;;
2522;SDS011;1272;53.332;9.860;2023-10-31T13:10:04;2.57;;;2.40;;
2522;SDS011;1272;53.332;9.860;2023-10-31T13:12:31;4.03;;;1.93;;
2522;SDS011;1272;53.332;9.860;2023-10-31T13:14:58;0.70;;;0.70;;
2522;SDS011;1272;53.332;9.860;2023-10-31T13:17:23;0.90;;;0.90;;
2522;SDS011;1272;53.332;9.860;2023-10-31T13:19:49;2.33;;;2.23;;
2522;SDS011;1272;53.332;9.860;2023-10-31T13:22:15;1.13;;;1.03;;
2522;SDS011;1272;53.332;9.860;2023-10-31T13:24:40;1.80;;;1.57;;
2522;SDS011;1272;53.332;9.860;2023-10-31T13:27:07;1.77;;;1.67;;
2522;SDS011;1272;53.332;9.860;2023-10-31T13:29:33;2.40;;;2.00;;
2522;SDS011;1272;53.332;9.860;2023-10-31T13:42:05;0.87;;;0.77;;
2522;SDS011;1272;53.332;9.860;2023-10-31T13:44:31;0.80;;;0.70;;
2522;SDS011;1272;53.332;9.860;2023-10-31T13:46:56;0.70;;;0.70;;
2522;SDS011;1272;53.332;9.860;2023-10-31T13:49:22;0.70;;;0.70;;
2522;SDS011;1272;53.332;9.860;2023-10-31T13:51:49;0.60;;;0.60;;
2522;SDS011;1272;53.332;9.860;2023-10-31T13:54:14;0.93;;;0.93;;
2522;SDS011;1272;53.332;9.860;2023-10-31T13:56:40;0.97;;;0.90;;
2522;SDS011;1272;53.332;9.860;2023-10-31T13:59:06;0.70;;;0.70;;
2522;SDS011;1272;53.332;9.860;2023-10-31T14:01:32;0.60;;;0.60;;
2522;SDS011;1272;53.332;9.860;2023-10-31T14:03:57;1.80;;;1.03;;
2522;SDS011;1272;53.332;9.860;2023-10-31T14:06:23;1.10;;;1.00;;
2522;SDS011;1272;53.332;9.860;2023-10-31T14:08:54;1.00;;;0.83;;
2522;SDS011;1272;53.332;9.860;2023-10-31T14:11:24;1.00;;;1.00;;
2522;SDS011;1272;53.332;9.860;2023-10-31T14:13:49;1.13;;;1.03;;
2522;SDS011;1272;53.332;9.860;2023-10-31T14:16:15;2.07;;;1.20;;
2522;SDS011;1272;53.332;9.860;2023-10-31T14:18:41;1.00;;;0.90;;
2522;SDS011;1272;53.332;9.860;2023-10-31T14:21:08;1.10;;;1.00;;
2522;SDS011;1272;53.332;9.860;2023-10-31T14:23:34;0.80;;;0.80;;
2522;SDS011;1272;53.332;9.860;2023-10-31T14:26:00;0.83;;;0.83;;
2522;SDS011;1272;53.332;9.860;2023-10-31T14:28:25;0.93;;;0.90;;
2522;SDS011;1272;53.332;9.860;2023-10-31T14:30:51;0.83;;;0.83;;
2522;SDS011;1272;53.332;9.860;2023-10-31T14:33:17;0.80;;;0.80;;
2522;SDS011;1272;53.332;9.860;2023-10-31T14:35:43;5.13;;;0.90;;
2522;SDS011;1272;53.332;9.860;2023-10-31T14:38:09;1.83;;;0.93;;
2522;SDS011;1272;53.332;9.860;2023-10-31T14:40:34;1.00;;;0.80;;
2522;SDS011;1272;53.332;9.860;2023-10-31T14:43:00;0.70;;;0.70;;
2522;SDS011;1272;53.332;9.860;2023-10-31T14:45:26;0.77;;;0.77;;
2522;SDS011;1272;53.332;9.860;2023-10-31T14:47:52;1.33;;;1.23;;
2522;SDS011;1272;53.332;9.860;2023-10-31T14:50:18;1.00;;;1.00;;
2522;SDS011;1272;53.332;9.860;2023-10-31T14:52:46;0.70;;;0.70;;
2522;SDS011;1272;53.332;9.860;2023-10-31T14:55:12;1.10;;;1.00;;
2522;SDS011;1272;53.332;9.860;2023-10-31T14:57:38;1.30;;;1.13;;
2522;SDS011;1272;53.332;9.860;2023-10-31T15:00:04;1.40;;;1.30;;
2522;SDS011;1272;53.332;9.860;2023-10-31T15:02:32;0.90;;;0.90;;
2522;SDS011;1272;53.332;9.860;2023-10-31T15:04:59;0.97;;;0.97;;
2522;SDS011;1272;53.332;9.860;2023-10-31T15:07:25;2.20;;;0.87;;
2522;SDS011;1272;53.332;9.860;2023-10-31T15:09:51;3.70;;;1.00;;
2522;SDS011;1272;53.332;9.860;2023-10-31T15:12:16;1.17;;;0.83;;
2522;SDS011;1272;53.332;9.860;2023-10-31T15:14:42;0.80;;;0.80;;
2522;SDS011;1272;53.332;9.860;2023-10-31T15:17:08;1.20;;;1.10;;
2522;SDS011;1272;53.332;9.860;2023-10-31T15:19:34;1.23;;;0.93;;
2522;SDS011;1272;53.332;9.860;2023-10-31T15:21:59;1.40;;;1.30;;
2522;SDS011;1272;53.332;9.860;2023-10-31T15:24:25;1.23;;;0.90;;
2522;SDS011;1272;53.332;9.860;2023-10-31T15:26:51;2.03;;;1.20;;
2522;SDS011;1272;53.332;9.860;2023-10-31T15:29:16;1.73;;;1.17;;
2522;SDS011;1272;53.332;9.860;2023-10-31T15:31:43;1.27;;;1.00;;
2522;SDS011;1272;53.332;9.860;2023-10-31T15:34:10;1.00;;;0.90;;
2522;SDS011;1272;53.332;9.860;2023-10-31T15:46:43;0.77;;;0.77;;
2522;SDS011;1272;53.332;9.860;2023-10-31T15:49:08;3.93;;;1.30;;
2522;SDS011;1272;53.332;9.860;2023-10-31T15:51:34;1.30;;;1.10;;
2522;SDS011;1272;53.332;9.860;2023-10-31T15:54:00;1.87;;;1.77;;
2522;SDS011;1272;53.332;9.860;2023-10-31T15:56:25;2.50;;;1.30;;
2522;SDS011;1272;53.332;9.860;2023-10-31T15:58:51;1.83;;;1.73;;
2522;SDS011;1272;53.332;9.860;2023-10-31T16:01:17;1.60;;;1.10;;
2522;SDS011;1272;53.332;9.860;2023-10-31T16:03:43;0.80;;;0.80;;
2522;SDS011;1272;53.332;9.860;2023-10-31T16:06:09;2.37;;;0.93;;
2522;SDS011;1272;53.332;9.860;2023-10-31T16:08:35;0.80;;;0.80;;
2522;SDS011;1272;53.332;9.860;2023-10-31T16:11:04;1.27;;;1.10;;
2522;SDS011;1272;53.332;9.860;2023-10-31T16:13:30;0.90;;;0.90;;